الصفحة الرئيسية
METAR-TAF:

METAR-TAF

مطار :

Sibu, ماليزيا

دائرة عرض: 02-20N, خط طول: 111-50E, ارتفاع: 8 متر

مراقبة الطقس الحالي

تاريخ ووقت الإصدار 27 دقيقة قبل الساعة 15:00UTC
ريح 2 عقدةمن اتجاهات متغيرة
درجة الحرارة 25°درجة مئوية
الرطوبة 100%
ضغط 1009 hPa
الرؤية 10 كم أو أكثر
غيوم متفرقة على ارتفاع 1800 قدم

METAR: WBGS 181500Z VRB02KT 9999 SCT018 25/25 Q1009

زمن: 23:27 (15:27 UTC)

توقعات

تاريخ ووقت الإصدار 4ساعات و 27 دقيقة قبل الساعة 11:00UTC
التوقعات صالحة من18 الساعة 12 UTC إلى 19 الساعة 12 UTC
ريح 3 عقدةمن اتجاهات متغيرة
الرؤية 10 كم أو أكثر
غيوم متفرقة على ارتفاع 1600 قدم
مؤقت
من 18 الساعة 12 UTC إلى 18 الساعة 15 UTC
الرؤية: 5000 متر
غيوم متفرقة على ارتفاع 1600 قدم
مطر خفيف,

TAF: WBGS 181100Z 1812/1912 VRB03KT 9999 SCT016 TEMPO 1812/1815 5000 -RA SCT016

أرصاد الطقس والتوقعات من أكثر من 4000 مطار (تقارير الطقس للمطار METAR والتنبؤ بالطقس بالمطارTAF).

المحطات المتاحة هي النقط الصفراء والحمراء على الخريطة.

حرك المؤشر فوق النقطة لمعرفة اسم المحطة.

ثم انقر لمعرفة أرصاد وتوقعات الطقس.

لتغيير الخارطة: اضغط على الأزرار الخضراء مع رمز الصليب الأسود للتكبير. على الزر الأخضر مع شرطة للتصغير، أو على الأسهم الخضراء للخرائط المجاورة.


METAR-TAF: